createdAt,value
2023-01-11T00:00:39.832Z,9.48
2023-01-11T00:03:07.025Z,9.50
2023-01-11T00:05:44.225Z,9.56
2023-01-11T00:08:11.842Z,9.53
2023-01-11T00:10:39.816Z,9.60
2023-01-11T00:13:06.878Z,9.60
2023-01-11T00:15:36.104Z,9.59
2023-01-11T00:18:03.148Z,9.67
2023-01-11T00:20:29.780Z,9.71
2023-01-11T00:22:56.311Z,9.71
2023-01-11T00:25:22.901Z,9.73
2023-01-11T00:27:49.697Z,9.68
2023-01-11T00:30:17.802Z,9.64
2023-01-11T00:32:44.434Z,9.65
2023-01-11T00:35:10.969Z,9.49
2023-01-11T00:37:37.619Z,9.56
2023-01-11T00:40:04.625Z,9.58
2023-01-11T00:42:51.517Z,9.58
2023-01-11T00:45:36.837Z,9.54
2023-01-11T00:48:05.968Z,9.57
2023-01-11T00:50:38.017Z,9.71
2023-01-11T00:53:05.363Z,9.67
2023-01-11T00:55:32.007Z,9.75
2023-01-11T00:57:59.240Z,9.75
2023-01-11T01:00:26.859Z,9.67
2023-01-11T01:02:53.656Z,9.77
2023-01-11T01:05:20.510Z,9.56
2023-01-11T01:07:47.430Z,9.75
2023-01-11T01:10:16.053Z,9.67
2023-01-11T01:13:01.206Z,9.65
2023-01-11T01:15:28.094Z,9.74
2023-01-11T01:17:55.814Z,9.70
2023-01-11T01:20:24.177Z,9.63
2023-01-11T01:22:50.839Z,9.73
2023-01-11T01:25:17.832Z,9.72
2023-01-11T01:27:44.545Z,9.78
2023-01-11T01:30:11.633Z,9.84
2023-01-11T01:32:38.140Z,9.62
2023-01-11T01:35:05.057Z,9.33
2023-01-11T01:37:31.835Z,8.52
2023-01-11T01:39:58.422Z,8.50
2023-01-11T01:42:25.259Z,8.95
2023-01-11T01:44:54.744Z,8.60
2023-01-11T01:47:27.107Z,8.32
2023-01-11T01:49:54.270Z,8.49
2023-01-11T01:52:21.433Z,7.79
2023-01-11T01:54:49.294Z,8.44
2023-01-11T01:57:26.848Z,7.95
2023-01-11T01:59:57.056Z,8.49
2023-01-11T02:02:25.067Z,8.77
2023-01-11T02:04:56.276Z,8.83
2023-01-11T02:07:28.756Z,9.00
2023-01-11T02:10:04.801Z,9.13
2023-01-11T02:12:43.474Z,9.13
2023-01-11T02:15:11.555Z,9.36
2023-01-11T02:17:38.100Z,9.44
2023-01-11T02:20:25.354Z,9.47
2023-01-11T02:23:20.421Z,9.52
2023-01-11T02:26:27.266Z,9.57
2023-01-11T02:29:35.806Z,9.49
2023-01-11T02:32:23.357Z,9.23
2023-01-11T02:35:16.865Z,9.42
2023-01-11T02:38:04.161Z,9.47
2023-01-11T02:40:42.228Z,9.65
2023-01-11T02:43:52.105Z,9.58
2023-01-11T02:46:40.564Z,9.55
2023-01-11T02:49:42.669Z,9.59
2023-01-11T02:52:14.415Z,9.43
2023-01-11T02:54:45.323Z,9.73
2023-01-11T02:57:14.008Z,9.68
2023-01-11T02:59:41.898Z,9.81
2023-01-11T03:02:08.493Z,9.82
2023-01-11T03:04:37.208Z,9.51
2023-01-11T03:07:24.108Z,9.52
2023-01-11T03:10:22.118Z,9.31
2023-01-11T03:12:59.525Z,9.79
2023-01-11T03:16:00.164Z,9.97
2023-01-11T03:18:37.361Z,10.17
2023-01-11T03:21:39.058Z,10.12
2023-01-11T03:24:48.032Z,9.54
2023-01-11T03:27:21.746Z,10.22
2023-01-11T03:29:54.161Z,10.17
2023-01-11T03:33:13.201Z,10.36
2023-01-11T03:35:42.284Z,10.32
2023-01-11T03:38:20.326Z,10.38
2023-01-11T03:40:55.182Z,10.38
2023-01-11T03:43:24.101Z,10.33
2023-01-11T03:46:14.681Z,10.36
2023-01-11T03:48:57.553Z,10.21
2023-01-11T03:51:27.920Z,10.01
2023-01-11T03:53:58.973Z,10.11
2023-01-11T03:56:33.878Z,10.12
2023-01-11T03:59:01.583Z,9.84
2023-01-11T04:01:28.245Z,9.99
2023-01-11T04:03:54.832Z,10.21
2023-01-11T04:06:22.253Z,10.18
2023-01-11T04:08:49.020Z,10.08
2023-01-11T04:11:15.692Z,10.16
2023-01-11T04:13:42.248Z,10.04
2023-01-11T04:16:08.869Z,10.04
2023-01-11T04:18:35.490Z,10.13
2023-01-11T04:21:02.099Z,10.11
2023-01-11T04:23:28.637Z,10.23
2023-01-11T04:25:55.258Z,10.24
2023-01-11T04:28:21.812Z,10.41
2023-01-11T04:30:48.373Z,10.39
2023-01-11T04:33:14.916Z,10.46
2023-01-11T04:35:42.099Z,10.42
2023-01-11T04:38:08.638Z,10.50
2023-01-11T04:40:35.224Z,10.47
2023-01-11T04:43:02.402Z,10.49
2023-01-11T04:45:29.888Z,10.54
2023-01-11T04:47:57.457Z,10.63
2023-01-11T04:50:25.512Z,10.71
2023-01-11T04:52:52.491Z,10.68
2023-01-11T04:55:19.808Z,10.78
2023-01-11T04:57:47.124Z,10.74
2023-01-11T05:00:15.727Z,10.74
2023-01-11T05:02:42.255Z,10.64
2023-01-11T05:05:10.739Z,10.80
2023-01-11T05:07:38.760Z,10.76
2023-01-11T05:10:06.190Z,10.82
2023-01-11T05:12:32.713Z,10.94
2023-01-11T05:14:59.341Z,10.99
2023-01-11T05:17:25.908Z,10.97
2023-01-11T05:19:52.490Z,11.04
2023-01-11T05:22:19.021Z,11.12
2023-01-11T05:24:45.586Z,11.08
2023-01-11T05:27:12.180Z,11.17
2023-01-11T05:29:38.694Z,11.23
2023-01-11T05:32:05.750Z,11.22
2023-01-11T05:34:32.487Z,11.26
2023-01-11T05:36:59.114Z,11.28
2023-01-11T05:39:25.793Z,11.31
2023-01-11T05:41:52.522Z,11.30
2023-01-11T05:44:37.862Z,11.30
2023-01-11T05:47:04.545Z,11.30
2023-01-11T05:49:31.111Z,11.38
2023-01-11T05:51:57.666Z,11.38
2023-01-11T05:54:24.269Z,11.47
2023-01-11T05:56:50.819Z,11.42
2023-01-11T05:59:17.480Z,11.47
2023-01-11T06:01:44.060Z,11.45
2023-01-11T06:04:10.730Z,11.53
2023-01-11T06:06:37.385Z,11.44
2023-01-11T06:09:04.002Z,11.47
2023-01-11T06:11:30.758Z,11.61
2023-01-11T06:13:57.392Z,11.65
2023-01-11T06:16:24.111Z,11.82
2023-01-11T06:18:52.391Z,11.88
2023-01-11T06:21:19.830Z,11.94
2023-01-11T06:23:48.311Z,11.86
2023-01-11T06:26:16.638Z,11.73
2023-01-11T06:28:43.915Z,11.60
2023-01-11T06:31:10.644Z,11.68
2023-01-11T06:33:37.640Z,11.76
2023-01-11T06:36:07.708Z,11.93
2023-01-11T06:38:34.680Z,12.03
2023-01-11T06:41:03.574Z,12.08
2023-01-11T06:43:31.402Z,12.07
2023-01-11T06:45:59.192Z,12.05
2023-01-11T06:48:26.927Z,11.97
2023-01-11T06:50:55.873Z,11.76
2023-01-11T06:53:23.620Z,11.87
2023-01-11T06:55:52.190Z,11.89
2023-01-11T06:58:19.111Z,12.03
2023-01-11T07:00:46.274Z,12.04
2023-01-11T07:03:13.242Z,12.11
2023-01-11T07:05:40.402Z,12.14
2023-01-11T07:08:06.969Z,12.13
2023-01-11T07:10:33.638Z,12.13
2023-01-11T07:13:00.294Z,12.14
2023-01-11T07:15:26.953Z,12.20
2023-01-11T07:17:58.606Z,12.30
2023-01-11T07:20:26.479Z,12.27
2023-01-11T07:22:56.937Z,12.24
2023-01-11T07:25:23.596Z,12.25
2023-01-11T07:27:54.880Z,12.28
2023-01-11T07:30:21.453Z,12.27
2023-01-11T07:32:47.964Z,12.30
2023-01-11T07:35:14.548Z,12.27
2023-01-11T07:37:41.493Z,12.14
2023-01-11T07:40:08.759Z,12.26
2023-01-11T07:42:53.658Z,12.23
2023-01-11T07:45:20.208Z,12.30
2023-01-11T07:47:51.147Z,12.27
2023-01-11T07:50:17.972Z,12.27
2023-01-11T07:52:48.467Z,12.30
2023-01-11T07:55:16.131Z,12.36
2023-01-11T07:57:42.810Z,12.38
2023-01-11T08:00:10.254Z,12.43
2023-01-11T08:02:39.615Z,12.50
2023-01-11T08:05:06.639Z,12.51
2023-01-11T08:07:33.256Z,12.53
2023-01-11T08:09:59.781Z,12.45
2023-01-11T08:12:45.000Z,12.49
2023-01-11T08:15:14.049Z,12.44
2023-01-11T08:17:40.608Z,12.51
2023-01-11T08:20:07.339Z,12.65
2023-01-11T08:22:34.231Z,12.70
2023-01-11T08:25:00.763Z,12.73
2023-01-11T08:27:27.295Z,12.80
2023-01-11T08:29:53.811Z,12.74
2023-01-11T08:32:20.308Z,12.86
2023-01-11T08:34:47.861Z,12.93
2023-01-11T08:37:14.466Z,12.98
2023-01-11T08:39:41.072Z,12.92
2023-01-11T08:42:07.650Z,12.97
2023-01-11T08:44:34.783Z,13.09
2023-01-11T08:47:03.187Z,12.83
2023-01-11T08:49:30.506Z,12.97
2023-01-11T08:51:57.295Z,13.21
2023-01-11T08:54:24.850Z,13.15
2023-01-11T08:56:51.396Z,13.32
2023-01-11T08:59:19.772Z,13.43
2023-01-11T09:01:46.459Z,13.57
2023-01-11T09:04:24.237Z,13.56
2023-01-11T09:06:52.533Z,13.83
2023-01-11T09:09:19.110Z,13.71
2023-01-11T09:11:56.521Z,13.95
2023-01-11T09:14:25.000Z,14.02
2023-01-11T09:16:52.956Z,14.02
2023-01-11T09:19:19.775Z,14.26
2023-01-11T09:21:46.625Z,14.25
2023-01-11T09:24:14.210Z,14.12
2023-01-11T09:26:43.303Z,14.18
2023-01-11T09:29:11.144Z,13.73
2023-01-11T09:31:38.116Z,13.79
2023-01-11T09:34:05.400Z,14.09
2023-01-11T09:36:33.255Z,14.34
2023-01-11T09:39:02.143Z,14.39
2023-01-11T09:41:50.829Z,14.61
2023-01-11T09:44:23.182Z,14.56
2023-01-11T09:46:56.004Z,14.48
2023-01-11T09:49:28.109Z,14.74
2023-01-11T09:52:13.103Z,15.07
2023-01-11T09:54:39.991Z,15.21
2023-01-11T09:57:23.719Z,15.32
2023-01-11T09:59:59.002Z,15.55
2023-01-11T10:02:44.725Z,15.16
2023-01-11T10:05:29.772Z,15.46
2023-01-11T10:18:22.405Z,16.01
2023-01-11T10:18:26.620Z,16.09
2023-01-11T10:20:41.612Z,16.41
2023-01-11T10:23:18.523Z,16.17
2023-01-11T10:25:51.492Z,16.58
2023-01-11T10:28:26.791Z,16.65
2023-01-11T10:30:55.848Z,16.95
2023-01-11T10:34:00.352Z,17.14
2023-01-11T10:37:07.338Z,17.13
2023-01-11T10:40:34.977Z,17.09
2023-01-11T10:43:12.814Z,17.13
2023-01-11T10:45:53.229Z,16.60
2023-01-11T10:48:34.167Z,17.23
2023-01-11T10:51:13.223Z,17.10
2023-01-11T10:54:00.945Z,17.49
2023-01-11T10:56:27.466Z,17.80
2023-01-11T10:59:04.060Z,17.95
2023-01-11T11:01:45.139Z,18.19
2023-01-11T11:04:21.197Z,18.48
2023-01-11T11:07:15.651Z,18.50
2023-01-11T11:09:47.971Z,19.04
2023-01-11T11:12:36.802Z,19.42
2023-01-11T11:15:20.239Z,20.18
2023-01-11T11:17:50.756Z,20.78
2023-01-11T11:20:21.086Z,20.46
2023-01-11T11:22:52.585Z,20.44
2023-01-11T11:25:31.276Z,20.42
2023-01-11T11:28:14.588Z,20.44
2023-01-11T11:30:46.983Z,20.14
2023-01-11T11:33:13.987Z,20.02
2023-01-11T11:35:42.161Z,19.99
2023-01-11T11:38:22.020Z,19.53
2023-01-11T11:40:58.198Z,19.01
2023-01-11T11:43:27.004Z,18.70
2023-01-11T11:45:59.320Z,19.15
2023-01-11T11:48:28.985Z,19.35
2023-01-11T11:50:58.106Z,19.10
2023-01-11T11:53:43.111Z,18.96
2023-01-11T11:56:36.006Z,18.80
2023-01-11T11:59:09.666Z,18.76
2023-01-11T12:01:47.167Z,18.50
2023-01-11T12:04:24.048Z,18.49
2023-01-11T12:07:19.190Z,18.47
2023-01-11T12:09:56.777Z,18.38
2023-01-11T12:12:26.365Z,18.31
2023-01-11T12:15:09.159Z,18.31
2023-01-11T12:17:36.083Z,18.36
2023-01-11T12:20:02.730Z,18.22
2023-01-11T12:22:29.433Z,18.34
2023-01-11T12:25:21.536Z,18.48
2023-01-11T12:28:02.052Z,18.37
2023-01-11T12:30:46.364Z,18.42
2023-01-11T12:33:28.709Z,18.45
2023-01-11T12:36:05.335Z,18.51
2023-01-11T12:39:05.039Z,18.25
2023-01-11T12:41:50.317Z,17.99
2023-01-11T12:45:01.682Z,18.26
2023-01-11T12:47:42.791Z,18.46
2023-01-11T12:50:24.743Z,18.27
2023-01-11T12:53:03.664Z,18.37
2023-01-11T12:55:49.279Z,18.46
2023-01-11T12:58:24.288Z,18.27
2023-01-11T13:01:09.661Z,18.16
2023-01-11T13:03:45.296Z,18.22
2023-01-11T13:06:17.073Z,18.17
2023-01-11T13:08:56.171Z,18.14
2023-01-11T13:11:45.825Z,18.14
2023-01-11T13:14:43.773Z,17.99
2023-01-11T13:17:37.072Z,18.14
2023-01-11T13:20:21.998Z,18.06
2023-01-11T13:22:54.849Z,18.09
2023-01-11T13:25:28.479Z,18.26
2023-01-11T13:27:57.731Z,18.14
2023-01-11T13:30:25.217Z,18.35
2023-01-11T13:33:17.159Z,18.51
2023-01-11T13:36:01.792Z,18.52
2023-01-11T13:38:35.078Z,18.46
2023-01-11T13:41:18.457Z,18.29
2023-01-11T13:43:57.725Z,18.41
2023-01-11T13:46:34.848Z,18.35
2023-01-11T13:49:18.275Z,18.31
2023-01-11T13:51:56.906Z,18.07
2023-01-11T13:54:34.614Z,18.07
2023-01-11T13:57:06.964Z,17.98
2023-01-11T13:59:45.571Z,17.58
2023-01-11T14:02:39.631Z,17.34
2023-01-11T14:05:18.766Z,17.59
2023-01-11T14:08:06.920Z,17.15
2023-01-11T14:10:44.896Z,17.45
2023-01-11T14:13:14.301Z,17.69
2023-01-11T14:15:47.730Z,17.11
2023-01-11T14:18:38.276Z,16.73
2023-01-11T14:21:43.007Z,15.42
2023-01-11T14:24:11.391Z,15.23
2023-01-11T14:27:03.887Z,15.40
2023-01-11T14:29:39.187Z,15.59
2023-01-11T14:32:45.694Z,15.12
2023-01-11T14:35:18.766Z,14.97
2023-01-11T14:38:07.193Z,15.40
2023-01-11T14:40:51.448Z,14.98
2023-01-11T14:43:41.056Z,14.10
2023-01-11T14:46:19.351Z,14.42
2023-01-11T14:48:48.943Z,13.80
2023-01-11T14:51:34.328Z,14.72
2023-01-11T14:54:08.243Z,14.49
2023-01-11T14:56:46.445Z,13.85
2023-01-11T14:59:31.326Z,14.50
2023-01-11T15:02:04.232Z,14.62
2023-01-11T15:04:38.835Z,14.62
2023-01-11T15:07:43.817Z,13.93
2023-01-11T15:10:30.258Z,13.93
2023-01-11T15:12:58.224Z,13.66
2023-01-11T15:15:51.111Z,14.33
2023-01-11T15:18:24.077Z,14.20
2023-01-11T15:21:02.059Z,14.52
2023-01-11T15:23:37.461Z,14.04
2023-01-11T15:26:07.894Z,13.73
2023-01-11T15:28:55.403Z,13.71
2023-01-11T15:31:47.712Z,13.79
2023-01-11T15:34:23.824Z,13.91
2023-01-11T15:37:03.840Z,13.76
2023-01-11T15:39:54.326Z,14.02
2023-01-11T15:42:45.137Z,14.15
2023-01-11T15:45:11.602Z,14.18
2023-01-11T15:48:16.466Z,14.39
2023-01-11T15:50:45.982Z,13.98
2023-01-11T15:53:38.339Z,14.16
2023-01-11T15:56:41.777Z,13.96
2023-01-11T15:59:49.855Z,13.90
2023-01-11T16:02:40.952Z,13.86
2023-01-11T16:05:18.387Z,14.38
2023-01-11T16:07:50.215Z,13.98
2023-01-11T16:10:53.895Z,13.65
2023-01-11T16:13:48.540Z,13.53
2023-01-11T16:16:21.328Z,13.99
2023-01-11T16:18:58.393Z,13.99
2023-01-11T16:21:37.484Z,14.13
2023-01-11T16:24:17.454Z,13.87
2023-01-11T16:26:44.558Z,13.20
2023-01-11T16:29:18.332Z,13.95
2023-01-11T16:31:54.051Z,14.12
2023-01-11T16:34:20.724Z,14.05
2023-01-11T16:36:49.084Z,13.88
2023-01-11T16:39:22.995Z,13.44
2023-01-11T16:41:58.389Z,13.66
2023-01-11T16:44:33.839Z,12.99
2023-01-11T16:47:26.697Z,13.60
2023-01-11T16:50:20.788Z,13.34
2023-01-11T16:52:54.966Z,13.59
2023-01-11T16:55:26.737Z,13.52
2023-01-11T16:57:58.276Z,13.53
2023-01-11T17:00:35.956Z,13.33
2023-01-11T17:03:24.405Z,13.53
2023-01-11T17:05:56.888Z,13.02
2023-01-11T17:08:29.431Z,13.47
2023-01-11T17:11:04.295Z,13.28
2023-01-11T17:13:58.971Z,12.99
2023-01-11T17:16:38.187Z,13.48
2023-01-11T17:19:32.269Z,13.48
2023-01-11T17:22:17.054Z,12.87
2023-01-11T17:24:51.844Z,13.51
2023-01-11T17:27:28.199Z,13.18
2023-01-11T17:29:57.076Z,13.22
2023-01-11T17:32:37.819Z,13.73
2023-01-11T17:35:13.791Z,13.69
2023-01-11T17:37:41.149Z,13.80
2023-01-11T17:40:21.517Z,13.85
2023-01-11T17:43:07.262Z,13.79
2023-01-11T17:45:34.713Z,13.89
2023-01-11T17:48:13.343Z,13.65
2023-01-11T17:50:47.588Z,13.60
2023-01-11T17:53:18.131Z,12.96
2023-01-11T17:56:02.159Z,13.69
2023-01-11T17:58:36.319Z,13.36
2023-01-11T18:01:07.717Z,13.20
2023-01-11T18:03:44.998Z,13.49
2023-01-11T18:06:18.347Z,13.31
2023-01-11T18:08:53.459Z,13.47
2023-01-11T18:11:51.444Z,13.63
2023-01-11T18:14:41.386Z,13.55
2023-01-11T18:17:40.641Z,13.03
2023-01-11T18:20:16.106Z,13.06
2023-01-11T18:22:56.141Z,12.33
2023-01-11T18:25:24.753Z,12.32
2023-01-11T18:27:51.599Z,13.04
2023-01-11T18:30:30.289Z,12.60
2023-01-11T18:33:03.770Z,12.52
2023-01-11T18:35:30.725Z,13.08
2023-01-11T18:37:57.288Z,12.86
2023-01-11T18:40:23.818Z,12.73
2023-01-11T18:42:53.404Z,12.42
2023-01-11T18:45:21.802Z,12.56
2023-01-11T18:47:48.418Z,12.75
2023-01-11T18:50:14.999Z,12.18
2023-01-11T18:52:41.590Z,12.00
2023-01-11T18:55:11.503Z,12.50
2023-01-11T18:57:38.105Z,12.80
2023-01-11T19:00:05.019Z,12.55
2023-01-11T19:02:42.157Z,12.40
2023-01-11T19:05:14.784Z,12.80
2023-01-11T19:07:41.619Z,12.80
2023-01-11T19:10:09.375Z,12.74
2023-01-11T19:12:35.954Z,12.99
2023-01-11T19:15:02.538Z,12.83
2023-01-11T19:17:29.163Z,12.96
2023-01-11T19:19:55.735Z,13.16
2023-01-11T19:22:26.079Z,12.97
2023-01-11T19:24:53.811Z,12.89
2023-01-11T19:27:20.567Z,12.95
2023-01-11T19:29:47.252Z,13.02
2023-01-11T19:32:15.667Z,12.82
2023-01-11T19:34:42.747Z,13.02
2023-01-11T19:37:09.288Z,12.82
2023-01-11T19:39:36.286Z,13.02
2023-01-11T19:42:03.136Z,13.15
2023-01-11T19:44:31.129Z,13.28
2023-01-11T19:47:10.333Z,13.20
2023-01-11T19:49:38.987Z,13.08
2023-01-11T19:52:12.113Z,13.14
2023-01-11T19:54:42.926Z,13.26
2023-01-11T19:57:11.592Z,13.16
2023-01-11T19:59:38.273Z,12.92
2023-01-11T20:02:05.391Z,12.84
2023-01-11T20:04:32.523Z,13.08
2023-01-11T20:06:59.588Z,13.39
2023-01-11T20:09:26.157Z,13.54
2023-01-11T20:11:53.293Z,13.65
2023-01-11T20:14:20.247Z,13.75
2023-01-11T20:16:46.845Z,13.58
2023-01-11T20:19:13.434Z,13.57
2023-01-11T20:21:39.961Z,13.62
2023-01-11T20:24:06.871Z,13.72
2023-01-11T20:26:36.484Z,13.36
2023-01-11T20:29:03.599Z,13.25
2023-01-11T20:31:32.151Z,13.10
2023-01-11T20:34:00.803Z,13.05
2023-01-11T20:36:28.139Z,13.15
2023-01-11T20:38:55.782Z,12.83
2023-01-11T20:41:48.185Z,12.86
2023-01-11T20:44:24.969Z,12.89
2023-01-11T20:46:53.179Z,13.12
2023-01-11T20:49:25.778Z,13.11
2023-01-11T20:51:52.400Z,13.17
2023-01-11T20:54:19.337Z,13.13
2023-01-11T20:56:46.925Z,12.86
2023-01-11T20:59:17.229Z,13.20
2023-01-11T21:01:44.034Z,12.67
2023-01-11T21:04:11.740Z,13.10
2023-01-11T21:06:41.246Z,12.88
2023-01-11T21:09:09.859Z,13.17
2023-01-11T21:14:04.431Z,13.22
2023-01-11T21:16:31.756Z,13.32
2023-01-11T21:19:03.395Z,13.23
2023-01-11T21:21:32.147Z,12.90
2023-01-11T21:24:01.313Z,12.85
2023-01-11T21:26:29.164Z,13.29
2023-01-11T21:29:01.136Z,13.21
2023-01-11T21:31:29.518Z,13.37
2023-01-11T21:33:56.440Z,13.27
2023-01-11T21:36:25.005Z,13.15
2023-01-11T21:38:53.128Z,12.88
2023-01-11T21:41:42.478Z,12.99
2023-01-11T21:44:10.479Z,12.80
2023-01-11T21:46:37.431Z,13.09
2023-01-11T21:49:04.639Z,13.17
2023-01-11T21:51:31.670Z,13.22
2023-01-11T21:53:59.313Z,13.12
2023-01-11T21:56:26.386Z,12.82
2023-01-11T21:58:53.017Z,12.87
2023-01-11T22:01:21.653Z,12.92
2023-01-11T22:03:48.616Z,13.13
2023-01-11T22:06:15.920Z,13.20
2023-01-11T22:08:46.539Z,12.93
2023-01-11T22:11:15.112Z,13.04
2023-01-11T22:13:42.821Z,13.01
2023-01-11T22:16:14.557Z,13.05
2023-01-11T22:18:41.927Z,13.10
2023-01-11T22:21:10.122Z,13.22
2023-01-11T22:23:37.047Z,13.09
2023-01-11T22:26:11.862Z,13.22
2023-01-11T22:28:57.505Z,13.06
2023-01-11T22:31:25.473Z,12.99
2023-01-11T22:33:52.188Z,13.01
2023-01-11T22:36:19.544Z,13.06
2023-01-11T22:38:46.811Z,13.12
2023-01-11T22:41:14.787Z,13.20
2023-01-11T22:43:43.064Z,13.14
2023-01-11T22:46:15.196Z,13.03
2023-01-11T22:48:41.809Z,12.70
2023-01-11T22:51:10.260Z,12.74
2023-01-11T22:53:41.937Z,12.88
2023-01-11T22:56:09.582Z,12.34
2023-01-11T22:58:36.546Z,12.34
2023-01-11T23:01:13.401Z,12.25
2023-01-11T23:03:41.015Z,12.31
2023-01-11T23:06:08.750Z,12.53
2023-01-11T23:08:41.527Z,12.50
2023-01-11T23:11:10.869Z,12.09
2023-01-11T23:13:52.568Z,12.44
2023-01-11T23:16:19.746Z,12.37
2023-01-11T23:18:46.339Z,12.13
2023-01-11T23:21:12.877Z,12.35
2023-01-11T23:23:40.227Z,12.22
2023-01-11T23:26:07.604Z,12.15
2023-01-11T23:28:34.986Z,12.31
2023-01-11T23:31:12.459Z,12.42
2023-01-11T23:33:39.007Z,12.43
2023-01-11T23:36:06.035Z,12.44
2023-01-11T23:38:32.881Z,12.27
2023-01-11T23:41:29.636Z,11.90
2023-01-11T23:43:56.644Z,11.71
2023-01-11T23:46:42.480Z,11.51
2023-01-11T23:49:10.396Z,11.37
2023-01-11T23:51:37.722Z,11.60
2023-01-11T23:54:05.457Z,11.61
2023-01-11T23:56:33.276Z,10.94
2023-01-11T23:59:00.167Z,10.57
